Terminal Aerodrome Forecast
Issued by NWS

Home | Current Version | Previous Version | Text Only | Print | Product List | Glossary On
Versions: 1 2 3 4 5 6 7 8 9 10 11 12 13 14 15 16 17 18 19
253
FTUS42 KMHX 061743
TAFOAJ
TAF
KOAJ 061743Z 0618/0718 02008KT P6SM SCT070
     FM062100 02006KT P6SM OVC060
     FM070700 36011KT P6SM -RA BKN040
     FM071300 02015G23KT 4SM -RA BR OVC025
      AMD LTD TO CLD VIS AND WIND=

USA.gov is the U.S. government's official web portal to all federal, state and local government web resources and services.